createdAt,value
2022-09-28T00:01:22.197Z,98052.13
2022-09-28T00:03:51.930Z,98052.81
2022-09-28T00:06:21.691Z,98051.63
2022-09-28T00:08:48.943Z,98057.97
2022-09-28T00:11:16.740Z,98057.88
2022-09-28T00:13:44.675Z,98059.16
2022-09-28T00:16:14.805Z,98054.84
2022-09-28T00:18:41.817Z,98057.78
2022-09-28T00:21:11.767Z,98066.38
2022-09-28T00:23:39.907Z,98063.03
2022-09-28T00:26:06.894Z,98060.50
2022-09-28T00:28:33.628Z,98053.75
2022-09-28T00:31:01.429Z,98056.66
2022-09-28T00:33:28.384Z,98054.97
2022-09-28T00:35:57.151Z,98053.00
2022-09-28T00:38:27.245Z,98053.16
2022-09-28T00:40:54.490Z,98042.25
2022-09-28T00:43:22.483Z,98048.53
2022-09-28T00:46:06.762Z,98042.22
2022-09-28T00:48:39.044Z,98042.84
2022-09-28T00:51:12.611Z,98041.44
2022-09-28T00:53:42.887Z,98045.19
2022-09-28T00:56:17.259Z,98038.56
2022-09-28T00:58:48.584Z,98041.78
2022-09-28T01:01:15.883Z,98054.41
2022-09-28T01:03:42.986Z,98054.88
2022-09-28T01:06:10.550Z,98058.41
2022-09-28T01:08:39.679Z,98067.16
2022-09-28T01:11:06.544Z,98064.88
2022-09-28T01:13:34.030Z,98056.97
2022-09-28T01:16:19.272Z,98053.44
2022-09-28T01:19:06.678Z,98057.13
2022-09-28T01:21:50.596Z,98053.28
2022-09-28T01:24:23.369Z,98049.28
2022-09-28T01:27:11.589Z,98047.56
2022-09-28T01:29:46.632Z,98053.88
2022-09-28T01:32:56.219Z,98053.44
2022-09-28T01:35:35.601Z,98046.47
2022-09-28T01:38:07.780Z,98055.72
2022-09-28T01:40:36.719Z,98053.28
2022-09-28T01:43:08.762Z,98043.47
2022-09-28T01:45:44.662Z,98037.56
2022-09-28T01:48:15.725Z,98022.19
2022-09-28T01:50:45.154Z,98030.50
2022-09-28T01:53:28.651Z,98031.47
2022-09-28T01:56:03.103Z,98038.66
2022-09-28T01:58:40.670Z,98038.53
2022-09-28T02:01:15.716Z,98034.22
2022-09-28T02:03:52.994Z,98034.84
2022-09-28T02:06:32.269Z,98034.09
2022-09-28T02:09:17.018Z,98039.31
2022-09-28T02:11:53.451Z,98036.69
2022-09-28T02:14:23.034Z,98048.09
2022-09-28T02:16:53.684Z,98049.97
2022-09-28T02:19:28.502Z,98052.47
2022-09-28T02:22:08.961Z,98052.63
2022-09-28T02:24:41.075Z,98054.94
2022-09-28T02:27:28.532Z,98053.56
2022-09-28T02:29:55.447Z,98064.78
2022-09-28T02:32:25.073Z,98048.63
2022-09-28T02:34:51.902Z,98050.16
2022-09-28T02:37:18.723Z,98039.66
2022-09-28T02:39:45.499Z,98038.59
2022-09-28T02:42:21.411Z,98032.56
2022-09-28T02:44:57.757Z,98028.03
2022-09-28T02:47:49.396Z,98034.22
2022-09-28T02:50:35.512Z,98032.38
2022-09-28T02:53:28.603Z,98032.94
2022-09-28T02:56:41.734Z,98015.66
2022-09-28T02:59:17.737Z,98015.31
2022-09-28T03:02:09.969Z,98012.38
2022-09-28T03:05:09.990Z,98019.31
2022-09-28T03:07:39.650Z,98026.09
2022-09-28T03:10:33.009Z,98028.09
2022-09-28T03:13:01.716Z,98020.56
2022-09-28T03:15:33.898Z,98014.22
2022-09-28T03:18:01.387Z,98010.97
2022-09-28T03:20:31.589Z,98004.00
2022-09-28T03:23:22.739Z,98004.59
2022-09-28T03:25:45.275Z,98003.59
2022-09-28T03:28:12.079Z,98008.25
2022-09-28T03:30:40.930Z,98009.16
2022-09-28T03:33:08.082Z,98006.84
2022-09-28T03:35:35.023Z,98010.50
2022-09-28T03:38:02.543Z,98004.34
2022-09-28T03:40:31.657Z,98002.78
2022-09-28T03:43:00.483Z,98003.25
2022-09-28T03:45:27.662Z,97995.03
2022-09-28T03:47:54.651Z,97991.50
2022-09-28T03:50:21.692Z,97995.19
2022-09-28T03:52:48.654Z,97992.63
2022-09-28T03:55:15.726Z,98005.66
2022-09-28T03:57:42.881Z,97993.84
2022-09-28T04:00:10.396Z,97992.34
2022-09-28T04:02:43.214Z,97998.19
2022-09-28T04:05:10.623Z,98001.88
2022-09-28T04:07:37.982Z,97987.69
2022-09-28T04:10:05.133Z,97991.25
2022-09-28T04:12:32.107Z,97980.63
2022-09-28T04:14:58.837Z,97969.34
2022-09-28T04:17:25.774Z,97975.03
2022-09-28T04:19:52.795Z,97958.38
2022-09-28T04:22:26.496Z,97950.63
2022-09-28T04:24:53.566Z,97954.16
2022-09-28T04:27:20.233Z,97957.94
2022-09-28T04:29:48.966Z,97962.66
2022-09-28T04:32:16.673Z,97953.59
2022-09-28T04:34:44.437Z,97949.94
2022-09-28T04:37:12.340Z,97957.78
2022-09-28T04:39:39.851Z,97957.03
2022-09-28T04:42:10.179Z,97959.47
2022-09-28T04:44:39.353Z,97962.88
2022-09-28T04:47:09.017Z,97966.16
2022-09-28T04:49:54.474Z,97958.94
2022-09-28T04:52:28.037Z,97958.75
2022-09-28T04:54:54.918Z,97954.00
2022-09-28T04:57:24.218Z,97952.66
2022-09-28T04:59:50.938Z,97954.63
2022-09-28T05:02:18.589Z,97951.59
2022-09-28T05:05:05.807Z,97946.44
2022-09-28T05:07:48.610Z,97936.22
2022-09-28T05:10:15.405Z,97931.03
2022-09-28T05:12:42.317Z,97928.00
2022-09-28T05:15:10.942Z,97939.22
2022-09-28T05:17:37.751Z,97935.34
2022-09-28T05:20:20.459Z,97927.53
2022-09-28T05:22:47.712Z,97923.66
2022-09-28T05:25:14.512Z,97926.63
2022-09-28T05:28:03.665Z,97922.28
2022-09-28T05:30:48.887Z,97924.84
2022-09-28T05:33:41.041Z,97909.88
2022-09-28T05:36:12.869Z,97921.38
2022-09-28T05:38:39.660Z,97919.09
2022-09-28T05:41:07.010Z,97918.28
2022-09-28T05:43:33.977Z,97899.63
2022-09-28T05:46:03.464Z,97887.66
2022-09-28T05:48:30.297Z,97877.13
2022-09-28T05:50:57.602Z,97878.66
2022-09-28T05:53:24.870Z,97868.44
2022-09-28T05:55:51.874Z,97869.81
2022-09-28T05:58:18.654Z,97868.66
2022-09-28T06:00:45.564Z,97877.63
2022-09-28T06:03:14.030Z,97878.81
2022-09-28T06:05:41.641Z,97883.13
2022-09-28T06:08:10.296Z,97882.34
2022-09-28T06:10:38.230Z,97886.94
2022-09-28T06:13:05.414Z,97885.22
2022-09-28T06:15:34.538Z,97879.13
2022-09-28T06:18:06.680Z,97891.31
2022-09-28T06:20:41.340Z,97878.44
2022-09-28T06:23:13.983Z,97888.88
2022-09-28T06:25:41.413Z,97880.03
2022-09-28T06:28:15.750Z,97872.72
2022-09-28T06:30:43.897Z,97866.22
2022-09-28T06:33:16.594Z,97871.38
2022-09-28T06:35:43.480Z,97860.78
2022-09-28T06:38:10.671Z,97871.31
2022-09-28T06:40:38.115Z,97864.22
2022-09-28T06:43:07.121Z,97871.69
2022-09-28T06:45:54.163Z,97868.34
2022-09-28T06:48:39.931Z,97859.91
2022-09-28T06:51:09.413Z,97856.97
2022-09-28T06:53:44.203Z,97854.31
2022-09-28T06:56:36.946Z,97846.19
2022-09-28T06:59:04.033Z,97846.53
2022-09-28T07:01:30.910Z,97840.69
2022-09-28T07:04:05.790Z,97837.59
2022-09-28T07:06:51.136Z,97836.38
2022-09-28T07:09:48.146Z,97833.28
2022-09-28T07:12:40.226Z,97816.88
2022-09-28T07:15:32.377Z,97822.69
2022-09-28T07:18:03.996Z,97819.56
2022-09-28T07:20:39.697Z,97819.00
2022-09-28T07:23:19.054Z,97815.59
2022-09-28T07:26:08.886Z,97809.41
2022-09-28T07:28:54.396Z,97809.31
2022-09-28T07:31:31.007Z,97804.59
2022-09-28T07:34:11.375Z,97800.59
2022-09-28T07:36:55.461Z,97798.56
2022-09-28T07:39:22.295Z,97780.19
2022-09-28T07:41:49.159Z,97780.28
2022-09-28T07:44:16.588Z,97774.75
2022-09-28T07:46:44.820Z,97767.63
2022-09-28T07:49:21.723Z,97762.25
2022-09-28T07:52:24.535Z,97755.44
2022-09-28T07:55:18.398Z,97754.69
2022-09-28T07:57:59.406Z,97762.00
2022-09-28T08:00:45.335Z,97765.47
2022-09-28T08:03:12.085Z,97773.97
2022-09-28T08:05:38.735Z,97763.50
2022-09-28T08:08:05.510Z,97767.50
2022-09-28T08:10:33.460Z,97752.34
2022-09-28T08:13:15.872Z,97749.97
2022-09-28T08:15:55.238Z,97756.72
2022-09-28T08:19:00.714Z,97751.00
2022-09-28T08:21:27.644Z,97748.28
2022-09-28T08:23:54.540Z,97747.59
2022-09-28T08:26:21.321Z,97754.84
2022-09-28T08:28:49.542Z,97749.88
2022-09-28T08:31:44.069Z,97735.63
2022-09-28T08:34:43.258Z,97734.22
2022-09-28T08:37:23.483Z,97721.25
2022-09-28T08:40:20.015Z,97723.28
2022-09-28T08:43:07.426Z,97708.91
2022-09-28T08:45:53.225Z,97711.06
2022-09-28T08:49:20.559Z,97706.31
2022-09-28T08:52:11.217Z,97693.31
2022-09-28T08:55:17.165Z,97686.25
2022-09-28T08:57:55.938Z,97689.22
2022-09-28T09:00:40.400Z,97688.91
2022-09-28T09:03:13.090Z,97686.66
2022-09-28T09:06:03.173Z,97685.25
2022-09-28T09:09:24.142Z,97680.09
2022-09-28T09:12:07.086Z,97674.88
2022-09-28T09:14:55.502Z,97655.16
2022-09-28T09:17:36.445Z,97660.88
2022-09-28T09:20:42.151Z,97650.75
2022-09-28T09:23:35.776Z,97643.88
2022-09-28T09:26:20.686Z,97653.53
2022-09-28T09:29:16.042Z,97650.94
2022-09-28T09:32:16.652Z,97652.97
2022-09-28T09:34:50.015Z,97643.56
2022-09-28T09:38:24.147Z,97650.19
2022-09-28T09:41:47.907Z,97644.22
2022-09-28T09:44:52.043Z,97651.91
2022-09-28T09:47:59.362Z,97652.00
2022-09-28T09:50:39.943Z,97641.09
2022-09-28T09:53:22.639Z,97626.50
2022-09-28T09:55:53.839Z,97630.47
2022-09-28T09:58:58.631Z,97613.53
2022-09-28T10:01:38.480Z,97620.00
2022-09-28T10:04:41.035Z,97612.97
2022-09-28T10:07:35.000Z,97605.78
2022-09-28T10:10:03.109Z,97602.78
2022-09-28T10:12:45.933Z,97587.69
2022-09-28T10:15:18.812Z,97591.91
2022-09-28T10:18:06.558Z,97581.41
2022-09-28T10:20:52.003Z,97576.53
2022-09-28T10:23:32.280Z,97572.75
2022-09-28T10:26:14.693Z,97570.94
2022-09-28T10:28:59.175Z,97575.13
2022-09-28T10:31:49.657Z,97558.22
2022-09-28T10:34:27.965Z,97567.09
2022-09-28T10:37:03.225Z,97572.03
2022-09-28T10:39:55.291Z,97571.00
2022-09-28T10:42:27.114Z,97566.19
2022-09-28T10:44:55.938Z,97562.84
2022-09-28T10:47:35.832Z,97564.44
2022-09-28T10:50:24.345Z,97555.75
2022-09-28T10:53:19.313Z,97553.16
2022-09-28T10:56:23.204Z,97556.19
2022-09-28T10:59:24.458Z,97550.53
2022-09-28T11:01:56.150Z,97553.53
2022-09-28T11:04:27.774Z,97547.88
2022-09-28T11:06:57.451Z,97541.06
2022-09-28T11:09:41.583Z,97538.81
2022-09-28T11:12:15.993Z,97535.03
2022-09-28T11:14:43.803Z,97540.00
2022-09-28T11:17:28.867Z,97535.84
2022-09-28T11:19:58.956Z,97533.22
2022-09-28T11:22:31.888Z,97527.53
2022-09-28T11:25:20.874Z,97529.06
2022-09-28T11:27:50.931Z,97527.16
2022-09-28T11:30:23.561Z,97525.66
2022-09-28T11:33:12.567Z,97517.69
2022-09-28T11:36:13.986Z,97517.69
2022-09-28T11:38:59.267Z,97502.91
2022-09-28T11:42:16.193Z,97503.28
2022-09-28T11:45:10.058Z,97502.91
2022-09-28T11:48:12.111Z,97498.75
2022-09-28T11:50:55.535Z,97503.28
2022-09-28T11:53:36.276Z,97501.41
2022-09-28T11:56:14.880Z,97508.97
2022-09-28T11:58:57.770Z,97502.47
2022-09-28T12:01:45.415Z,97517.31
2022-09-28T12:04:36.103Z,97522.63
2022-09-28T12:07:22.883Z,97501.75
2022-09-28T12:10:00.213Z,97513.13
2022-09-28T12:12:47.409Z,97518.44
2022-09-28T12:15:22.645Z,97523.75
2022-09-28T12:18:22.063Z,97526.03
2022-09-28T12:21:15.639Z,97528.69
2022-09-28T12:23:44.973Z,97526.78
2022-09-28T12:26:28.478Z,97525.66
2022-09-28T12:29:00.856Z,97531.34
2022-09-28T12:31:42.676Z,97540.06
2022-09-28T12:34:09.950Z,97534.78
2022-09-28T12:36:55.799Z,97542.34
2022-09-28T12:39:58.538Z,97529.47
2022-09-28T12:42:43.668Z,97542.34
2022-09-28T12:45:38.702Z,97548.81
2022-09-28T12:48:27.100Z,97553.72
2022-09-28T12:51:08.960Z,97557.16
2022-09-28T12:54:04.051Z,97557.53
2022-09-28T12:56:39.811Z,97550.72
2022-09-28T12:59:19.642Z,97541.59
2022-09-28T13:02:20.225Z,97542.34
2022-09-28T13:05:03.412Z,97530.59
2022-09-28T13:07:56.321Z,97532.88
2022-09-28T13:10:26.009Z,97543.88
2022-09-28T13:13:17.104Z,97543.88
2022-09-28T13:15:57.450Z,97544.22
2022-09-28T13:18:38.455Z,97554.06
2022-09-28T13:21:26.458Z,97556.31
2022-09-28T13:24:14.411Z,97561.22
2022-09-28T13:26:47.627Z,97559.28
2022-09-28T13:29:17.959Z,97551.69
2022-09-28T13:31:49.312Z,97548.25
2022-09-28T13:34:23.658Z,97553.53
2022-09-28T13:37:13.851Z,97566.78
2022-09-28T13:39:47.918Z,97564.50
2022-09-28T13:42:48.652Z,97580.91
2022-09-28T13:45:21.081Z,97574.84
2022-09-28T13:47:59.934Z,97586.28
2022-09-28T13:50:30.366Z,97584.38
2022-09-28T13:53:15.811Z,97583.28
2022-09-28T13:56:13.705Z,97600.38
2022-09-28T13:59:09.002Z,97596.97
2022-09-28T14:01:53.714Z,97595.44
2022-09-28T14:04:23.994Z,97593.19
2022-09-28T14:06:56.883Z,97599.66
2022-09-28T14:09:27.472Z,97597.75
2022-09-28T14:12:01.873Z,97592.06
2022-09-28T14:14:43.302Z,97603.09
2022-09-28T14:17:19.215Z,97599.66
2022-09-28T14:20:00.793Z,97599.28
2022-09-28T14:22:48.904Z,97612.97
2022-09-28T14:25:28.264Z,97610.66
2022-09-28T14:28:16.901Z,97614.88
2022-09-28T14:30:43.663Z,97612.56
2022-09-28T14:33:28.058Z,97614.09
2022-09-28T14:36:05.397Z,97603.47
2022-09-28T14:38:37.905Z,97613.34
2022-09-28T14:41:06.367Z,97617.16
2022-09-28T14:43:45.333Z,97606.50
2022-09-28T14:46:12.146Z,97609.50
2022-09-28T14:48:51.621Z,97612.56
2022-09-28T14:51:27.489Z,97615.59
2022-09-28T14:53:59.877Z,97621.69
2022-09-28T14:56:32.590Z,97623.94
2022-09-28T14:59:00.680Z,97623.56
2022-09-28T15:01:28.209Z,97628.50
2022-09-28T15:03:59.321Z,97635.69
2022-09-28T15:06:26.395Z,97638.34
2022-09-28T15:08:53.169Z,97641.00
2022-09-28T15:11:26.298Z,97648.22
2022-09-28T15:14:06.311Z,97658.81
2022-09-28T15:16:33.745Z,97659.56
2022-09-28T15:19:12.452Z,97661.84
2022-09-28T15:21:42.030Z,97664.13
2022-09-28T15:24:38.323Z,97656.16
2022-09-28T15:27:15.543Z,97657.66
2022-09-28T15:30:03.319Z,97658.41
2022-09-28T15:32:30.141Z,97666.00
2022-09-28T15:34:56.957Z,97664.88
2022-09-28T15:37:29.585Z,97664.50
2022-09-28T15:39:58.345Z,97670.22
2022-09-28T15:42:25.393Z,97671.72
2022-09-28T15:45:02.117Z,97680.44
2022-09-28T15:47:30.484Z,97676.25
2022-09-28T15:50:02.264Z,97681.97
2022-09-28T15:52:44.805Z,97678.16
2022-09-28T15:55:35.908Z,97680.81
2022-09-28T15:58:05.497Z,97680.41
2022-09-28T16:00:32.306Z,97690.63
2022-09-28T16:03:07.889Z,97687.19
2022-09-28T16:05:57.954Z,97682.94
2022-09-28T16:08:30.858Z,97687.47
2022-09-28T16:11:38.079Z,97699.25
2022-09-28T16:14:15.956Z,97697.69
2022-09-28T16:16:49.555Z,97696.44
2022-09-28T16:19:28.557Z,97706.59
2022-09-28T16:21:57.861Z,97706.97
2022-09-28T16:24:28.097Z,97714.50
2022-09-28T16:27:23.593Z,97713.31
2022-09-28T16:30:21.336Z,97719.75
2022-09-28T16:33:05.981Z,97731.81
2022-09-28T16:35:35.501Z,97731.75
2022-09-28T16:38:15.882Z,97732.50
2022-09-28T16:40:51.109Z,97722.59
2022-09-28T16:43:27.642Z,97728.59
2022-09-28T16:45:59.353Z,97734.59
2022-09-28T16:48:29.129Z,97735.69
2022-09-28T16:50:57.271Z,97729.59
2022-09-28T16:53:24.922Z,97729.91
2022-09-28T16:55:51.697Z,97733.28
2022-09-28T16:58:18.438Z,97732.91
2022-09-28T17:00:45.222Z,97736.66
2022-09-28T17:03:17.097Z,97738.88
2022-09-28T17:05:46.474Z,97740.03
2022-09-28T17:08:16.108Z,97732.09
2022-09-28T17:13:44.942Z,97735.06
2022-09-28T17:16:18.554Z,97741.50
2022-09-28T17:18:45.701Z,97747.94
2022-09-28T17:21:17.363Z,97747.53
2022-09-28T17:23:45.328Z,97740.72
2022-09-28T17:26:28.415Z,97738.81
2022-09-28T17:28:55.215Z,97741.47
2022-09-28T17:31:22.148Z,97747.44
2022-09-28T17:33:49.001Z,97740.59
2022-09-28T17:36:18.427Z,97750.72
2022-09-28T17:38:50.995Z,97747.59
2022-09-28T17:41:20.832Z,97752.47
2022-09-28T17:43:48.455Z,97745.66
2022-09-28T17:46:30.977Z,97749.78
2022-09-28T17:48:59.837Z,97747.50
2022-09-28T17:51:35.045Z,97741.44
2022-09-28T17:54:02.295Z,97736.53
2022-09-28T17:56:32.477Z,97744.03
2022-09-28T17:59:02.403Z,97747.78
2022-09-28T18:01:30.386Z,97745.50
2022-09-28T18:04:00.676Z,97748.88
2022-09-28T18:06:27.917Z,97746.19
2022-09-28T18:08:54.777Z,97759.00
2022-09-28T18:11:21.689Z,97757.09
2022-09-28T18:13:48.526Z,97752.53
2022-09-28T18:16:15.637Z,97743.06
2022-09-28T18:18:42.508Z,97749.78
2022-09-28T18:21:10.463Z,97757.69
2022-09-28T18:23:38.913Z,97757.63
2022-09-28T18:26:15.401Z,97749.25
2022-09-28T18:28:42.680Z,97752.63
2022-09-28T18:31:13.473Z,97749.16
2022-09-28T18:33:41.085Z,97749.50
2022-09-28T18:36:08.554Z,97759.28
2022-09-28T18:38:36.505Z,97766.88
2022-09-28T18:41:14.629Z,97774.00
2022-09-28T18:43:43.117Z,97779.25
2022-09-28T18:46:11.597Z,97778.06
2022-09-28T18:48:39.073Z,97775.00
2022-09-28T18:51:10.725Z,97782.88
2022-09-28T18:53:38.494Z,97775.38
2022-09-28T18:56:10.785Z,97774.19
2022-09-28T18:58:39.514Z,97777.97
2022-09-28T19:01:29.083Z,97787.41
2022-09-28T19:03:55.998Z,97784.00
2022-09-28T19:06:22.998Z,97784.00
2022-09-28T19:08:54.687Z,97797.94
2022-09-28T19:11:21.909Z,97810.34
2022-09-28T19:13:48.709Z,97804.63
2022-09-28T19:16:30.639Z,97797.06
2022-09-28T19:18:59.208Z,97801.53
2022-09-28T19:21:26.500Z,97805.22
2022-09-28T19:23:53.340Z,97805.16
2022-09-28T19:26:22.874Z,97805.09
2022-09-28T19:28:50.210Z,97813.75
2022-09-28T19:31:17.437Z,97811.75
2022-09-28T19:33:44.190Z,97813.19
2022-09-28T19:36:14.812Z,97816.53
2022-09-28T19:38:41.809Z,97816.06
2022-09-28T19:41:13.276Z,97812.94
2022-09-28T19:43:40.102Z,97811.69
2022-09-28T19:46:07.359Z,97816.56
2022-09-28T19:48:34.661Z,97814.91
2022-09-28T19:51:06.618Z,97823.13
2022-09-28T19:53:35.359Z,97821.09
2022-09-28T19:56:03.773Z,97820.72
2022-09-28T19:58:34.526Z,97816.06
2022-09-28T20:01:06.593Z,97813.75
2022-09-28T20:03:35.492Z,97810.28
2022-09-28T20:06:03.126Z,97824.59
2022-09-28T20:08:29.999Z,97818.88
2022-09-28T20:10:58.513Z,97822.22
2022-09-28T20:13:36.857Z,97824.03
2022-09-28T20:16:08.995Z,97827.03
2022-09-28T20:18:37.356Z,97829.22
2022-09-28T20:21:09.437Z,97830.69
2022-09-28T20:23:36.301Z,97832.50
2022-09-28T20:26:04.759Z,97844.94
2022-09-28T20:28:33.364Z,97842.56
2022-09-28T20:31:12.634Z,97849.38
2022-09-28T20:33:39.818Z,97845.91
2022-09-28T20:36:11.656Z,97846.16
2022-09-28T20:38:38.808Z,97853.66
2022-09-28T20:41:06.379Z,97855.47
2022-09-28T20:43:33.449Z,97863.72
2022-09-28T20:46:05.081Z,97872.31
2022-09-28T20:48:32.550Z,97868.50
2022-09-28T20:51:01.839Z,97869.50
2022-09-28T20:53:30.410Z,97877.44
2022-09-28T20:56:02.753Z,97875.16
2022-09-28T20:58:30.295Z,97874.38
2022-09-28T21:01:27.079Z,97880.78
2022-09-28T21:03:56.416Z,97885.25
2022-09-28T21:06:25.795Z,97884.94
2022-09-28T21:08:53.274Z,97882.28
2022-09-28T21:11:22.495Z,97881.53
2022-09-28T21:13:53.105Z,97885.63
2022-09-28T21:16:20.247Z,97887.50
2022-09-28T21:18:48.234Z,97887.91
2022-09-28T21:21:17.399Z,97887.06
2022-09-28T21:23:44.487Z,97888.09
2022-09-28T21:26:22.609Z,97894.03
2022-09-28T21:28:52.846Z,97892.09
2022-09-28T21:31:22.712Z,97892.75
2022-09-28T21:33:52.969Z,97904.78
2022-09-28T21:36:19.826Z,97892.34
2022-09-28T21:38:46.671Z,97885.56
2022-09-28T21:41:13.426Z,97888.53
2022-09-28T21:43:40.159Z,97884.38
2022-09-28T21:46:07.271Z,97889.63
2022-09-28T21:48:33.989Z,97902.47
2022-09-28T21:51:03.904Z,97906.22
2022-09-28T21:53:33.258Z,97906.88
2022-09-28T21:56:01.508Z,97909.22
2022-09-28T21:58:30.860Z,97909.22
2022-09-28T22:01:05.510Z,97913.16
2022-09-28T22:03:33.878Z,97912.81
2022-09-28T22:06:01.210Z,97908.22
2022-09-28T22:08:28.143Z,97914.28
2022-09-28T22:11:15.817Z,97907.81
2022-09-28T22:13:47.431Z,97914.97
2022-09-28T22:16:16.748Z,97918.34
2022-09-28T22:18:44.313Z,97915.72
2022-09-28T22:21:15.742Z,97927.38
2022-09-28T22:23:42.705Z,97937.13
2022-09-28T22:26:16.923Z,97945.75
2022-09-28T22:28:49.546Z,97947.84
2022-09-28T22:31:18.165Z,97939.50
2022-09-28T22:33:45.150Z,97936.44
2022-09-28T22:36:12.641Z,97941.28
2022-09-28T22:38:39.471Z,97931.09
2022-09-28T22:41:06.311Z,97939.66
2022-09-28T22:43:33.112Z,97935.06
2022-09-28T22:46:12.119Z,97934.88
2022-09-28T22:48:40.068Z,97935.47
2022-09-28T22:51:07.332Z,97942.50
2022-09-28T22:53:35.694Z,97946.16
2022-09-28T22:56:03.761Z,97948.78
2022-09-28T22:58:30.617Z,97959.66
2022-09-28T23:01:04.685Z,97961.09
2022-09-28T23:03:31.535Z,97965.16
2022-09-28T23:05:58.306Z,97962.53
2022-09-28T23:08:25.148Z,97965.38
2022-09-28T23:10:52.398Z,97970.34
2022-09-28T23:13:20.244Z,97969.03
2022-09-28T23:16:02.164Z,97964.44
2022-09-28T23:18:31.932Z,97969.28
2022-09-28T23:21:01.398Z,97974.44
2022-09-28T23:23:29.215Z,97977.75
2022-09-28T23:25:56.607Z,97980.69
2022-09-28T23:28:25.487Z,97979.50
2022-09-28T23:30:52.734Z,97968.63
2022-09-28T23:33:21.525Z,97975.00
2022-09-28T23:35:48.438Z,97977.66
2022-09-28T23:38:17.630Z,97972.03
2022-09-28T23:40:48.123Z,97980.69
2022-09-28T23:43:15.048Z,97981.81
2022-09-28T23:45:45.101Z,97975.56
2022-09-28T23:48:12.309Z,97987.22
2022-09-28T23:50:39.150Z,97993.91
2022-09-28T23:53:05.918Z,97980.63
2022-09-28T23:55:33.268Z,97989.19
2022-09-28T23:58:00.217Z,97980.53
